sensor_id;sensor_type;location;lat;lon;timestamp;P1;P2;P0
64627;PMS5003;68467;50.960;0.314;2023-05-21T14:31:26;7;7;
64627;PMS5003;68467;50.960;0.314;2023-05-21T14:33:53;8;8;
64627;PMS5003;68467;50.960;0.314;2023-05-21T14:36:20;8;7;
64627;PMS5003;68467;50.960;0.314;2023-05-21T14:38:47;5;5;
64627;PMS5003;68467;50.960;0.314;2023-05-21T14:41:14;8;7;
64627;PMS5003;68467;50.960;0.314;2023-05-21T14:43:41;5;5;
64627;PMS5003;68467;50.960;0.314;2023-05-21T14:46:08;7;7;
64627;PMS5003;68467;50.960;0.314;2023-05-21T14:48:35;6;6;
64627;PMS5003;68467;50.960;0.314;2023-05-21T14:51:02;9;8;
64627;PMS5003;68467;50.960;0.314;2023-05-21T14:53:29;6;6;
64627;PMS5003;68467;50.960;0.314;2023-05-21T14:55:56;7;7;
64627;PMS5003;68467;50.960;0.314;2023-05-21T14:58:23;6;6;
64627;PMS5003;68467;50.960;0.314;2023-05-21T15:00:49;6;6;
64627;PMS5003;68467;50.960;0.314;2023-05-21T15:03:16;6;5;
64627;PMS5003;68467;50.960;0.314;2023-05-21T15:05:43;5;5;
64627;PMS5003;68467;50.960;0.314;2023-05-21T15:08:10;7;7;
64627;PMS5003;68467;50.960;0.314;2023-05-21T15:10:37;5;5;
64627;PMS5003;68467;50.960;0.314;2023-05-21T15:13:09;6;6;
64627;PMS5003;68467;50.960;0.314;2023-05-21T15:15:36;9;8;
64627;PMS5003;68467;50.960;0.314;2023-05-21T15:18:03;7;7;
64627;PMS5003;68467;50.960;0.314;2023-05-21T15:20:30;7;7;
64627;PMS5003;68467;50.960;0.314;2023-05-21T15:22:57;9;8;
64627;PMS5003;68467;50.960;0.314;2023-05-21T15:25:23;5;5;
64627;PMS5003;68467;50.960;0.314;2023-05-21T15:27:50;7;6;
64627;PMS5003;68467;50.960;0.314;2023-05-21T15:30:18;7;7;
64627;PMS5003;68467;50.960;0.314;2023-05-21T15:32:45;7;7;
64627;PMS5003;68467;50.960;0.314;2023-05-21T15:35:12;7;7;
64627;PMS5003;68467;50.960;0.314;2023-05-21T15:37:40;7;6;
64627;PMS5003;68467;50.960;0.314;2023-05-21T15:40:07;7;6;
64627;PMS5003;68467;50.960;0.314;2023-05-21T15:42:36;8;7;
64627;PMS5003;68467;50.960;0.314;2023-05-21T15:45:03;6;6;
64627;PMS5003;68467;50.960;0.314;2023-05-21T15:47:31;8;7;
64627;PMS5003;68467;50.960;0.314;2023-05-21T15:49:58;6;6;
64627;PMS5003;68467;50.960;0.314;2023-05-21T15:52:25;7;7;
64627;PMS5003;68467;50.960;0.314;2023-05-21T15:54:53;7;7;
64627;PMS5003;68467;50.960;0.314;2023-05-21T15:57:19;9;8;
64627;PMS5003;68467;50.960;0.314;2023-05-21T15:59:46;8;8;
64627;PMS5003;68467;50.960;0.314;2023-05-21T16:02:14;9;9;
64627;PMS5003;68467;50.960;0.314;2023-05-21T16:04:46;8;8;
64627;PMS5003;68467;50.960;0.314;2023-05-21T16:07:13;5;5;
64627;PMS5003;68467;50.960;0.314;2023-05-21T16:09:40;7;6;
64627;PMS5003;68467;50.960;0.314;2023-05-21T16:12:08;7;7;
64627;PMS5003;68467;50.960;0.314;2023-05-21T16:14:35;9;8;
64627;PMS5003;68467;50.960;0.314;2023-05-21T16:17:02;8;8;
64627;PMS5003;68467;50.960;0.314;2023-05-21T16:19:29;8;8;
64627;PMS5003;68467;50.960;0.314;2023-05-21T16:21:56;9;9;
64627;PMS5003;68467;50.960;0.314;2023-05-21T16:24:23;6;6;
64627;PMS5003;68467;50.960;0.314;2023-05-21T16:26:50;9;8;
64627;PMS5003;68467;50.960;0.314;2023-05-21T16:29:17;6;5;
64627;PMS5003;68467;50.960;0.314;2023-05-21T16:31:44;6;6;
64627;PMS5003;68467;50.960;0.314;2023-05-21T16:34:13;6;6;
64627;PMS5003;68467;50.960;0.314;2023-05-21T16:36:41;8;8;
64627;PMS5003;68467;50.960;0.314;2023-05-21T16:39:08;7;6;
64627;PMS5003;68467;50.960;0.314;2023-05-21T16:41:35;7;6;
64627;PMS5003;68467;50.960;0.314;2023-05-21T16:44:02;8;7;
64627;PMS5003;68467;50.960;0.314;2023-05-21T16:46:29;6;6;
64627;PMS5003;68467;50.960;0.314;2023-05-21T16:48:56;5;5;
64627;PMS5003;68467;50.960;0.314;2023-05-21T16:51:23;7;7;
64627;PMS5003;68467;50.960;0.314;2023-05-21T16:53:50;8;8;
64627;PMS5003;68467;50.960;0.314;2023-05-21T16:56:17;9;8;
64627;PMS5003;68467;50.960;0.314;2023-05-21T16:58:44;7;7;
64627;PMS5003;68467;50.960;0.314;2023-05-21T17:01:11;8;7;
64627;PMS5003;68467;50.960;0.314;2023-05-21T17:03:38;9;9;
64627;PMS5003;68467;50.960;0.314;2023-05-21T17:06:05;9;9;
64627;PMS5003;68467;50.960;0.314;2023-05-21T17:08:32;11;9;
64627;PMS5003;68467;50.960;0.314;2023-05-21T17:11:00;6;6;
64627;PMS5003;68467;50.960;0.314;2023-05-21T17:13:27;7;7;
64627;PMS5003;68467;50.960;0.314;2023-05-21T17:15:54;9;9;
64627;PMS5003;68467;50.960;0.314;2023-05-21T17:18:21;8;8;
64627;PMS5003;68467;50.960;0.314;2023-05-21T17:20:48;7;7;
64627;PMS5003;68467;50.960;0.314;2023-05-21T17:23:15;10;10;
64627;PMS5003;68467;50.960;0.314;2023-05-21T17:25:42;9;9;
64627;PMS5003;68467;50.960;0.314;2023-05-21T17:28:09;8;8;
64627;PMS5003;68467;50.960;0.314;2023-05-21T17:30:37;10;10;
64627;PMS5003;68467;50.960;0.314;2023-05-21T17:33:05;9;9;
64627;PMS5003;68467;50.960;0.314;2023-05-21T17:35:32;7;6;
64627;PMS5003;68467;50.960;0.314;2023-05-21T17:37:59;7;7;
64627;PMS5003;68467;50.960;0.314;2023-05-21T17:40:26;7;7;
64627;PMS5003;68467;50.960;0.314;2023-05-21T17:42:53;9;9;
64627;PMS5003;68467;50.960;0.314;2023-05-21T17:45:21;8;8;
64627;PMS5003;68467;50.960;0.314;2023-05-21T17:47:48;8;8;
64627;PMS5003;68467;50.960;0.314;2023-05-21T17:50:15;9;8;
64627;PMS5003;68467;50.960;0.314;2023-05-21T17:52:42;8;8;
64627;PMS5003;68467;50.960;0.314;2023-05-21T17:55:09;9;9;
64627;PMS5003;68467;50.960;0.314;2023-05-21T17:57:36;7;7;
64627;PMS5003;68467;50.960;0.314;2023-05-21T18:00:04;7;7;
64627;PMS5003;68467;50.960;0.314;2023-05-21T18:02:33;9;8;
64627;PMS5003;68467;50.960;0.314;2023-05-21T18:05:01;7;7;
64627;PMS5003;68467;50.960;0.314;2023-05-21T18:07:29;7;7;
64627;PMS5003;68467;50.960;0.314;2023-05-21T18:09:55;6;6;
64627;PMS5003;68467;50.960;0.314;2023-05-21T18:12:23;8;8;
64627;PMS5003;68467;50.960;0.314;2023-05-21T18:14:49;8;6;
64627;PMS5003;68467;50.960;0.314;2023-05-21T18:17:17;9;8;
64627;PMS5003;68467;50.960;0.314;2023-05-21T18:19:44;7;7;
64627;PMS5003;68467;50.960;0.314;2023-05-21T18:22:11;8;7;
64627;PMS5003;68467;50.960;0.314;2023-05-21T18:24:38;8;8;
64627;PMS5003;68467;50.960;0.314;2023-05-21T18:27:05;8;7;
64627;PMS5003;68467;50.960;0.314;2023-05-21T18:29:32;8;8;
64627;PMS5003;68467;50.960;0.314;2023-05-21T18:31:59;5;5;
64627;PMS5003;68467;50.960;0.314;2023-05-21T18:34:26;6;6;
64627;PMS5003;68467;50.960;0.314;2023-05-21T18:36:53;6;6;
64627;PMS5003;68467;50.960;0.314;2023-05-21T18:39:20;6;6;
64627;PMS5003;68467;50.960;0.314;2023-05-21T18:41:47;8;7;
64627;PMS5003;68467;50.960;0.314;2023-05-21T18:44:15;8;7;
64627;PMS5003;68467;50.960;0.314;2023-05-21T18:46:42;6;6;
64627;PMS5003;68467;50.960;0.314;2023-05-21T18:49:09;7;6;
64627;PMS5003;68467;50.960;0.314;2023-05-21T18:51:37;6;6;
64627;PMS5003;68467;50.960;0.314;2023-05-21T18:54:04;7;7;
64627;PMS5003;68467;50.960;0.314;2023-05-21T18:56:31;7;6;
64627;PMS5003;68467;50.960;0.314;2023-05-21T18:58:58;6;6;
64627;PMS5003;68467;50.960;0.314;2023-05-21T19:01:30;9;8;
64627;PMS5003;68467;50.960;0.314;2023-05-21T19:03:57;7;6;
64627;PMS5003;68467;50.960;0.314;2023-05-21T19:06:24;7;7;
64627;PMS5003;68467;50.960;0.314;2023-05-21T19:08:51;6;6;
64627;PMS5003;68467;50.960;0.314;2023-05-21T19:11:19;9;8;
64627;PMS5003;68467;50.960;0.314;2023-05-21T19:13:47;8;7;
64627;PMS5003;68467;50.960;0.314;2023-05-21T19:16:14;8;7;
64627;PMS5003;68467;50.960;0.314;2023-05-21T19:18:41;6;5;
64627;PMS5003;68467;50.960;0.314;2023-05-21T19:21:08;9;8;
64627;PMS5003;68467;50.960;0.314;2023-05-21T19:23:35;9;9;
64627;PMS5003;68467;50.960;0.314;2023-05-21T19:26:03;8;8;
64627;PMS5003;68467;50.960;0.314;2023-05-21T19:28:30;8;8;
64627;PMS5003;68467;50.960;0.314;2023-05-21T19:30:57;7;7;
64627;PMS5003;68467;50.960;0.314;2023-05-21T19:33:24;8;8;
64627;PMS5003;68467;50.960;0.314;2023-05-21T19:35:51;9;9;
64627;PMS5003;68467;50.960;0.314;2023-05-21T19:38:18;7;7;
64627;PMS5003;68467;50.960;0.314;2023-05-21T19:40:45;9;9;
64627;PMS5003;68467;50.960;0.314;2023-05-21T19:43:12;9;8;
64627;PMS5003;68467;50.960;0.314;2023-05-21T19:45:39;8;8;
64627;PMS5003;68467;50.960;0.314;2023-05-21T19:48:06;9;8;
64627;PMS5003;68467;50.960;0.314;2023-05-21T19:50:34;12;11;
64627;PMS5003;68467;50.960;0.314;2023-05-21T19:53:01;9;8;
64627;PMS5003;68467;50.960;0.314;2023-05-21T19:55:28;10;10;
64627;PMS5003;68467;50.960;0.314;2023-05-21T19:57:55;8;8;
64627;PMS5003;68467;50.960;0.314;2023-05-21T20:00:22;7;7;
64627;PMS5003;68467;50.960;0.314;2023-05-21T20:02:50;11;9;
64627;PMS5003;68467;50.960;0.314;2023-05-21T20:05:17;9;9;
64627;PMS5003;68467;50.960;0.314;2023-05-21T20:07:44;11;11;
64627;PMS5003;68467;50.960;0.314;2023-05-21T20:10:11;10;10;
64627;PMS5003;68467;50.960;0.314;2023-05-21T20:12:38;11;10;
64627;PMS5003;68467;50.960;0.314;2023-05-21T20:15:05;9;9;
64627;PMS5003;68467;50.960;0.314;2023-05-21T20:17:33;9;9;
64627;PMS5003;68467;50.960;0.314;2023-05-21T20:20:01;8;8;
64627;PMS5003;68467;50.960;0.314;2023-05-21T20:22:28;11;10;
64627;PMS5003;68467;50.960;0.314;2023-05-21T20:24:55;10;10;
64627;PMS5003;68467;50.960;0.314;2023-05-21T20:27:23;7;6;
64627;PMS5003;68467;50.960;0.314;2023-05-21T20:29:50;9;8;
64627;PMS5003;68467;50.960;0.314;2023-05-21T20:32:17;11;11;
64627;PMS5003;68467;50.960;0.314;2023-05-21T20:34:44;7;7;
64627;PMS5003;68467;50.960;0.314;2023-05-21T20:37:17;9;9;
64627;PMS5003;68467;50.960;0.314;2023-05-21T20:39:45;9;8;
64627;PMS5003;68467;50.960;0.314;2023-05-21T20:42:12;9;9;
64627;PMS5003;68467;50.960;0.314;2023-05-21T20:44:39;8;7;
64627;PMS5003;68467;50.960;0.314;2023-05-21T20:47:06;12;12;
64627;PMS5003;68467;50.960;0.314;2023-05-21T20:49:33;9;8;
64627;PMS5003;68467;50.960;0.314;2023-05-21T20:52:00;13;12;
64627;PMS5003;68467;50.960;0.314;2023-05-21T20:54:27;10;10;
64627;PMS5003;68467;50.960;0.314;2023-05-21T20:56:54;10;10;
64627;PMS5003;68467;50.960;0.314;2023-05-21T20:59:21;10;10;
64627;PMS5003;68467;50.960;0.314;2023-05-21T21:01:48;9;8;
64627;PMS5003;68467;50.960;0.314;2023-05-21T21:04:15;11;9;
64627;PMS5003;68467;50.960;0.314;2023-05-21T21:06:43;8;8;
64627;PMS5003;68467;50.960;0.314;2023-05-21T21:09:10;10;10;
64627;PMS5003;68467;50.960;0.314;2023-05-21T21:11:38;10;9;
64627;PMS5003;68467;50.960;0.314;2023-05-21T21:14:04;12;10;
64627;PMS5003;68467;50.960;0.314;2023-05-21T21:16:31;8;8;
64627;PMS5003;68467;50.960;0.314;2023-05-21T21:18:59;10;10;
64627;PMS5003;68467;50.960;0.314;2023-05-21T21:21:26;9;7;
64627;PMS5003;68467;50.960;0.314;2023-05-21T21:23:53;7;7;
64627;PMS5003;68467;50.960;0.314;2023-05-21T21:26:21;13;12;
64627;PMS5003;68467;50.960;0.314;2023-05-21T21:28:49;12;11;
64627;PMS5003;68467;50.960;0.314;2023-05-21T21:31:16;11;10;
64627;PMS5003;68467;50.960;0.314;2023-05-21T21:33:43;10;9;
64627;PMS5003;68467;50.960;0.314;2023-05-21T21:36:10;10;10;
64627;PMS5003;68467;50.960;0.314;2023-05-21T21:38:37;10;10;
64627;PMS5003;68467;50.960;0.314;2023-05-21T21:41:05;11;11;
64627;PMS5003;68467;50.960;0.314;2023-05-21T21:43:32;9;9;
64627;PMS5003;68467;50.960;0.314;2023-05-21T21:45:59;9;8;
64627;PMS5003;68467;50.960;0.314;2023-05-21T21:48:26;10;9;
64627;PMS5003;68467;50.960;0.314;2023-05-21T21:50:53;11;11;
64627;PMS5003;68467;50.960;0.314;2023-05-21T21:53:20;10;10;
64627;PMS5003;68467;50.960;0.314;2023-05-21T21:55:47;13;12;
64627;PMS5003;68467;50.960;0.314;2023-05-21T21:58:14;12;11;
64627;PMS5003;68467;50.960;0.314;2023-05-21T22:00:42;11;10;
64627;PMS5003;68467;50.960;0.314;2023-05-21T22:03:09;12;12;
64627;PMS5003;68467;50.960;0.314;2023-05-21T22:05:37;11;10;
64627;PMS5003;68467;50.960;0.314;2023-05-21T22:08:04;11;11;
64627;PMS5003;68467;50.960;0.314;2023-05-21T22:10:32;11;11;
64627;PMS5003;68467;50.960;0.314;2023-05-21T22:12:59;12;12;
64627;PMS5003;68467;50.960;0.314;2023-05-21T22:15:26;12;11;
64627;PMS5003;68467;50.960;0.314;2023-05-21T22:17:53;13;11;
64627;PMS5003;68467;50.960;0.314;2023-05-21T22:20:20;11;11;
64627;PMS5003;68467;50.960;0.314;2023-05-21T22:22:48;11;11;
64627;PMS5003;68467;50.960;0.314;2023-05-21T22:25:15;14;13;
64627;PMS5003;68467;50.960;0.314;2023-05-21T22:27:42;9;8;
64627;PMS5003;68467;50.960;0.314;2023-05-21T22:30:10;12;12;
64627;PMS5003;68467;50.960;0.314;2023-05-21T22:32:38;11;9;
64627;PMS5003;68467;50.960;0.314;2023-05-21T22:35:05;11;10;
64627;PMS5003;68467;50.960;0.314;2023-05-21T22:37:33;11;10;
64627;PMS5003;68467;50.960;0.314;2023-05-21T22:40:00;11;11;
64627;PMS5003;68467;50.960;0.314;2023-05-21T22:42:27;11;11;
64627;PMS5003;68467;50.960;0.314;2023-05-21T22:44:54;11;10;
64627;PMS5003;68467;50.960;0.314;2023-05-21T22:47:21;10;9;
64627;PMS5003;68467;50.960;0.314;2023-05-21T22:49:48;9;9;
64627;PMS5003;68467;50.960;0.314;2023-05-21T22:52:16;11;11;
64627;PMS5003;68467;50.960;0.314;2023-05-21T22:54:44;11;10;
64627;PMS5003;68467;50.960;0.314;2023-05-21T22:57:11;9;9;
64627;PMS5003;68467;50.960;0.314;2023-05-21T22:59:37;11;10;
64627;PMS5003;68467;50.960;0.314;2023-05-21T23:02:05;10;10;
64627;PMS5003;68467;50.960;0.314;2023-05-21T23:04:32;10;9;
64627;PMS5003;68467;50.960;0.314;2023-05-21T23:06:59;10;10;
64627;PMS5003;68467;50.960;0.314;2023-05-21T23:09:26;9;9;
64627;PMS5003;68467;50.960;0.314;2023-05-21T23:11:53;9;9;
64627;PMS5003;68467;50.960;0.314;2023-05-21T23:14:20;11;10;
64627;PMS5003;68467;50.960;0.314;2023-05-21T23:16:47;13;12;
64627;PMS5003;68467;50.960;0.314;2023-05-21T23:19:14;11;10;
64627;PMS5003;68467;50.960;0.314;2023-05-21T23:21:41;12;12;
64627;PMS5003;68467;50.960;0.314;2023-05-21T23:24:08;10;10;
64627;PMS5003;68467;50.960;0.314;2023-05-21T23:26:36;11;11;
64627;PMS5003;68467;50.960;0.314;2023-05-21T23:29:03;10;10;
64627;PMS5003;68467;50.960;0.314;2023-05-21T23:31:30;10;10;
64627;PMS5003;68467;50.960;0.314;2023-05-21T23:33:57;12;11;
64627;PMS5003;68467;50.960;0.314;2023-05-21T23:36:24;13;12;
64627;PMS5003;68467;50.960;0.314;2023-05-21T23:38:51;11;11;
64627;PMS5003;68467;50.960;0.314;2023-05-21T23:41:18;12;11;
64627;PMS5003;68467;50.960;0.314;2023-05-21T23:43:45;11;11;
64627;PMS5003;68467;50.960;0.314;2023-05-21T23:46:12;11;10;
64627;PMS5003;68467;50.960;0.314;2023-05-21T23:48:39;11;11;
64627;PMS5003;68467;50.960;0.314;2023-05-21T23:51:06;11;10;
64627;PMS5003;68467;50.960;0.314;2023-05-21T23:53:33;11;11;
64627;PMS5003;68467;50.960;0.314;2023-05-21T23:56:00;10;10;
64627;PMS5003;68467;50.960;0.314;2023-05-21T23:58:28;9;9;
